Artois, California
Current Conditions -  °F | °C
As of 1:53 AM on Saturday 20 Dec 2014 (Local Time) from KOVE Reporting Station
Overcast Overcast  
Wind Chill: 52°   Ceiling: 500
Heat Index: 52°   Visibility: 10mi
Dew Point: 50°   Wind: 12mph
Humidity: 93%   Direction: 150°SSE
Pressure: 30.16"   Gusts: NA
Location:  39.62°N, 122.2°W
Report Text: KOVE 200953Z AUTO 15010KT 10SM OVC005 11/10 A3016 RMK AO2 SLP216 T01110100
Loading
Personal Weather Stations






























Interactive Weather Map New forecast layout! Learn more

10-Day Weather Forecast

Advertisements
Track Severe Weather on mobile